Time;durP1;ratioP1;P1;durP2;ratioP2;P2;SDS_P1;SDS_P2;PMS_P1;PMS_P2;Temp;Humidity;BMP_temperature;BMP_pressure;BME280_temperature;BME280_humidity;BME280_pressure;Samples;Min_cycle;Max_cycle;Signal;HPM_P1;HPM_P2
2021/12/05 00:24:28;;;;;;;0.40;0.30;;;4.80;99.90;;;;;;4953314;29;20425;-71
2021/12/05 00:27:02;;;;;;;0.40;0.20;;;5.00;99.90;;;;;;4952763;29;20397;-71
2021/12/05 00:29:44;;;;;;;0.40;0.20;;;4.80;99.90;;;;;;4953313;29;20381;-71
2021/12/05 00:32:25;;;;;;;0.40;0.20;;;4.90;99.90;;;;;;4953217;29;20461;-72
2021/12/05 01:09:35;;;;;;;0.50;0.50;;;4.70;99.90;;;;;;4971387;28;20392;-72
2021/12/05 01:15:15;;;;;;;0.40;0.20;;;4.60;99.90;;;;;;4911963;29;20584;-71
2021/12/05 01:18:10;;;;;;;0.40;0.20;;;4.60;99.90;;;;;;4942288;28;20454;-71
2021/12/05 01:20:38;;;;;;;0.40;0.20;;;4.60;99.90;;;;;;4970596;28;20404;-70
2021/12/05 01:25:47;;;;;;;0.40;0.30;;;4.60;99.90;;;;;;4971272;28;20384;-70
2021/12/05 01:31:45;;;;;;;0.40;0.20;;;4.60;99.90;;;;;;4971673;28;20447;-69
2021/12/05 01:33:59;;;;;;;0.40;0.20;;;4.60;99.90;;;;;;4965393;28;20400;-69
2021/12/05 01:36:54;;;;;;;0.40;0.20;;;4.60;99.90;;;;;;4956167;28;20450;-69
2021/12/05 01:57:48;;;;;;;0.40;0.20;;;4.80;99.90;;;;;;4952343;29;20488;-69
2021/12/05 02:09:12;;;;;;;0.40;0.20;;;4.60;99.90;;;;;;4900879;29;20925;-68
2021/12/05 02:36:25;;;;;;;0.40;0.20;;;4.60;99.90;;;;;;4950257;28;20432;-69
2021/12/05 02:41:21;;;;;;;0.40;0.20;;;4.70;99.90;;;;;;4974639;28;20381;-69
2021/12/05 02:43:57;;;;;;;0.40;0.20;;;4.60;99.90;;;;;;4974192;28;20471;-69
2021/12/05 02:46:25;;;;;;;0.40;0.20;;;4.60;99.90;;;;;;4974595;28;20482;-70
2021/12/05 02:48:51;;;;;;;0.40;0.20;;;4.70;99.90;;;;;;4974083;28;20396;-69
2021/12/05 02:51:25;;;;;;;0.40;0.20;;;4.60;99.90;;;;;;4974362;28;20464;-69
2021/12/05 02:56:27;;;;;;;0.40;0.20;;;4.50;99.90;;;;;;4974430;28;20496;-70
2021/12/05 02:58:58;;;;;;;0.40;0.20;;;4.40;99.90;;;;;;4973903;28;20753;-69
2021/12/05 03:01:34;;;;;;;0.40;0.20;;;4.40;99.90;;;;;;4974546;28;20503;-69
2021/12/05 03:04:00;;;;;;;0.40;0.20;;;4.40;99.90;;;;;;4973925;28;20515;-69
2021/12/05 03:06:28;;;;;;;0.40;0.20;;;4.40;99.90;;;;;;4974299;28;20818;-69
2021/12/05 03:09:00;;;;;;;0.40;0.20;;;4.50;99.90;;;;;;4973549;28;20479;-70
2021/12/05 03:11:28;;;;;;;0.40;0.20;;;4.50;99.90;;;;;;4973896;28;20427;-70
2021/12/05 03:13:54;;;;;;;0.40;0.20;;;4.50;99.90;;;;;;4973412;28;20892;-69
2021/12/05 03:16:22;;;;;;;0.40;0.20;;;4.60;99.90;;;;;;4973689;28;20776;-69
2021/12/05 03:18:48;;;;;;;0.40;0.20;;;4.60;99.90;;;;;;4974242;28;20441;-69
2021/12/05 03:21:15;;;;;;;0.40;0.20;;;4.60;99.90;;;;;;4955857;28;20419;-70
2021/12/05 03:23:43;;;;;;;0.40;0.20;;;4.70;99.90;;;;;;4973492;28;20459;-71
2021/12/05 03:26:13;;;;;;;0.40;0.20;;;4.70;99.90;;;;;;4972868;28;20916;-71
2021/12/05 03:28:39;;;;;;;0.40;0.20;;;4.70;99.90;;;;;;4956705;28;20706;-71
2021/12/05 03:31:06;;;;;;;0.40;0.20;;;4.70;99.90;;;;;;4973294;28;20393;-70
2021/12/05 03:33:32;;;;;;;0.40;0.20;;;4.70;99.90;;;;;;4973863;28;20396;-70
2021/12/05 03:35:58;;;;;;;0.40;0.20;;;4.80;99.90;;;;;;4962108;28;20770;-70
2021/12/05 03:38:25;;;;;;;0.40;0.20;;;4.80;99.90;;;;;;4953577;29;20870;-70
2021/12/05 03:40:51;;;;;;;0.40;0.20;;;4.80;99.90;;;;;;4954273;29;20751;-70
2021/12/05 03:43:19;;;;;;;0.40;0.20;;;4.80;99.90;;;;;;4953804;29;20385;-70
2021/12/05 03:45:49;;;;;;;0.40;0.20;;;4.80;99.90;;;;;;4954349;29;20397;-70
2021/12/05 03:48:15;;;;;;;0.40;0.20;;;4.80;99.90;;;;;;4953367;29;20890;-70
2021/12/05 03:50:42;;;;;;;0.40;0.20;;;4.90;99.90;;;;;;4954112;29;20409;-71
2021/12/05 03:53:08;;;;;;;0.40;0.20;;;4.90;99.90;;;;;;4954465;29;20453;-70
2021/12/05 03:55:36;;;;;;;2.20;0.60;;;4.80;99.90;;;;;;4953107;29;20973;-70
2021/12/05 03:58:02;;;;;;;0.40;0.20;;;4.70;99.90;;;;;;4953839;29;20495;-70
2021/12/05 04:00:32;;;;;;;0.40;0.20;;;4.70;99.90;;;;;;4953244;29;20930;-71
2021/12/05 04:03:02;;;;;;;0.40;0.20;;;4.80;99.90;;;;;;4953730;29;21002;-69
2021/12/05 04:05:31;;;;;;;0.40;0.20;;;4.80;99.90;;;;;;4953473;29;20398;-70
2021/12/05 04:07:57;;;;;;;0.40;0.20;;;4.80;99.90;;;;;;4953928;29;20393;-70
2021/12/05 04:10:26;;;;;;;0.40;0.20;;;4.70;99.90;;;;;;4953392;29;20390;-71
2021/12/05 04:12:53;;;;;;;0.40;0.20;;;4.70;99.90;;;;;;4953725;29;20398;-70
2021/12/05 04:15:20;;;;;;;0.40;0.20;;;4.60;99.90;;;;;;4953697;29;20393;-70
2021/12/05 04:17:45;;;;;;;0.40;0.20;;;4.50;99.90;;;;;;4953013;29;20861;-70
2021/12/05 04:20:13;;;;;;;0.40;0.20;;;4.50;99.90;;;;;;4953565;29;20413;-70
2021/12/05 04:22:41;;;;;;;0.40;0.20;;;4.50;99.90;;;;;;4953122;29;20390;-70
2021/12/05 04:25:10;;;;;;;0.40;0.20;;;4.40;99.90;;;;;;4953331;29;20892;-70
2021/12/05 04:27:38;;;;;;;0.40;0.20;;;4.40;99.90;;;;;;4935569;29;20390;-70
2021/12/05 04:30:06;;;;;;;0.40;0.20;;;4.30;99.90;;;;;;4953377;29;20389;-70
2021/12/05 04:32:32;;;;;;;0.40;0.20;;;4.30;99.90;;;;;;4953033;29;20394;-70
2021/12/05 04:34:58;;;;;;;0.40;0.20;;;4.30;99.90;;;;;;4955727;28;20395;-70
2021/12/05 04:37:24;;;;;;;0.40;0.20;;;4.30;99.90;;;;;;4955240;28;20486;-70
2021/12/05 04:39:51;;;;;;;0.40;0.20;;;4.20;99.90;;;;;;4972150;28;20396;-71
2021/12/05 04:42:17;;;;;;;0.40;0.20;;;4.20;99.90;;;;;;4972324;28;20853;-70
2021/12/05 04:44:45;;;;;;;0.40;0.20;;;4.20;99.90;;;;;;4972499;28;20456;-70
2021/12/05 04:47:11;;;;;;;0.40;0.20;;;4.20;99.90;;;;;;4972417;28;20434;-70
2021/12/05 04:49:39;;;;;;;0.40;0.20;;;4.20;99.90;;;;;;4972411;28;20392;-70
2021/12/05 04:52:06;;;;;;;0.40;0.20;;;4.10;99.90;;;;;;4954533;28;20424;-70
2021/12/05 04:54:32;;;;;;;0.40;0.20;;;4.20;99.90;;;;;;4972419;28;20419;-70
2021/12/05 04:56:58;;;;;;;0.40;0.20;;;4.20;99.90;;;;;;4954259;28;20420;-71
2021/12/05 04:59:26;;;;;;;0.40;0.20;;;4.30;99.90;;;;;;4971926;28;20399;-70
2021/12/05 05:01:54;;;;;;;0.40;0.20;;;4.30;99.90;;;;;;4972715;28;20834;-70
2021/12/05 05:04:29;;;;;;;0.40;0.20;;;4.30;99.90;;;;;;4972097;28;20385;-70
2021/12/05 05:07:07;;;;;;;0.40;0.20;;;4.40;99.90;;;;;;4972783;28;20876;-70
2021/12/05 05:09:33;;;;;;;0.40;0.20;;;4.30;99.90;;;;;;4972672;28;20746;-70
2021/12/05 05:11:59;;;;;;;0.40;0.20;;;4.30;99.90;;;;;;4972624;28;20384;-70
2021/12/05 05:14:26;;;;;;;0.40;0.20;;;4.40;99.90;;;;;;4954666;28;20662;-70
2021/12/05 05:16:53;;;;;;;0.40;0.20;;;4.40;99.90;;;;;;4972672;28;20765;-70
2021/12/05 05:19:23;;;;;;;0.40;0.20;;;4.50;99.90;;;;;;4971778;28;20406;-71
2021/12/05 05:46:02;;;;;;;0.40;0.20;;;4.70;99.90;;;;;;4971294;28;20389;-71
2021/12/05 05:51:08;;;;;;;0.40;0.20;;;4.70;99.90;;;;;;4956385;28;20560;-70
2021/12/05 05:53:34;;;;;;;0.40;0.20;;;4.70;99.90;;;;;;4954596;28;20467;-73
2021/12/05 05:56:00;;;;;;;0.40;0.20;;;4.70;99.90;;;;;;4972093;28;20411;-71
2021/12/05 05:58:38;;;;;;;0.40;0.20;;;4.70;99.90;;;;;;4971953;28;20432;-71
2021/12/05 06:01:07;;;;;;;0.40;0.20;;;4.60;99.90;;;;;;4972240;28;20388;-71
2021/12/05 06:03:33;;;;;;;0.40;0.20;;;4.70;99.90;;;;;;4971726;28;20435;-71
2021/12/05 06:06:08;;;;;;;0.40;0.20;;;4.70;99.90;;;;;;4954204;28;20450;-70
2021/12/05 06:08:37;;;;;;;0.40;0.20;;;4.60;99.90;;;;;;4971830;28;20384;-70
2021/12/05 06:11:13;;;;;;;0.40;0.20;;;4.70;99.90;;;;;;4971490;28;20391;-71
2021/12/05 06:13:39;;;;;;;0.40;0.20;;;4.70;99.90;;;;;;4971793;28;20899;-71
2021/12/05 06:16:07;;;;;;;0.40;0.30;;;4.70;99.90;;;;;;4971300;28;20403;-71
2021/12/05 06:18:33;;;;;;;0.40;0.20;;;4.80;99.90;;;;;;4971797;28;20443;-71
2021/12/05 06:20:59;;;;;;;0.40;0.20;;;4.80;99.90;;;;;;4971465;28;20400;-71
2021/12/05 06:23:25;;;;;;;0.40;0.20;;;4.80;99.90;;;;;;4971765;28;20821;-72
2021/12/05 06:25:52;;;;;;;1.10;0.60;;;4.80;99.90;;;;;;4971672;28;20400;-72
2021/12/05 06:28:24;;;;;;;0.40;0.20;;;4.70;99.90;;;;;;4971225;28;20384;-73
2021/12/05 06:31:13;;;;;;;0.40;0.20;;;4.80;99.90;;;;;;4954911;28;20462;-72
2021/12/05 06:41:54;;;;;;;0.40;0.20;;;4.60;99.90;;;;;;4952579;29;20398;-72
2021/12/05 06:47:06;;;;;;;0.40;0.20;;;4.60;99.90;;;;;;4952497;29;20442;-70
2021/12/05 06:49:32;;;;;;;0.40;0.20;;;4.60;99.90;;;;;;4951609;29;20477;-70
2021/12/05 06:51:57;;;;;;;0.40;0.20;;;4.50;99.90;;;;;;4952734;29;20838;-69
2021/12/05 06:54:24;;;;;;;0.40;0.20;;;4.60;99.90;;;;;;4951926;29;20386;-70
2021/12/05 06:56:50;;;;;;;0.40;0.20;;;4.50;99.90;;;;;;4952247;29;20422;-70
2021/12/05 06:59:16;;;;;;;0.40;0.20;;;4.50;99.90;;;;;;4954592;28;20421;-70
2021/12/05 07:01:42;;;;;;;0.40;0.20;;;4.60;99.90;;;;;;4954918;29;20750;-70
2021/12/05 07:04:20;;;;;;;0.40;0.30;;;4.60;99.90;;;;;;4955648;29;20390;-70
2021/12/05 07:06:46;;;;;;;0.40;0.20;;;4.60;99.90;;;;;;4955126;29;20421;-70
2021/12/05 07:09:12;;;;;;;0.40;0.20;;;4.60;99.90;;;;;;4955581;29;20823;-70
2021/12/05 07:14:32;;;;;;;0.40;0.20;;;4.60;99.90;;;;;;4938447;29;20855;-70
2021/12/05 07:17:07;;;;;;;0.40;0.20;;;4.70;99.90;;;;;;4955348;29;20405;-70
2021/12/05 07:22:15;;;;;;;0.40;0.20;;;4.70;99.90;;;;;;4955393;29;20398;-70
2021/12/05 07:41:08;;;;;;;0.40;0.30;;;4.90;99.90;;;;;;4973779;28;20399;-71
2021/12/05 07:43:34;;;;;;;0.40;0.20;;;5.00;99.90;;;;;;4957185;28;20521;-71
2021/12/05 07:46:06;;;;;;;0.40;0.20;;;5.10;99.90;;;;;;4973258;28;20434;-71
2021/12/05 07:48:35;;;;;;;0.40;0.20;;;5.00;99.90;;;;;;4974198;28;20376;-70
2021/12/05 07:53:45;;;;;;;0.40;0.20;;;5.10;99.90;;;;;;4974066;28;20387;-69
2021/12/05 07:56:14;;;;;;;0.40;0.20;;;5.10;99.90;;;;;;4973206;28;20952;-70
2021/12/05 08:15:09;;;;;;;0.40;0.20;;;5.30;99.90;;;;;;4973720;28;20390;-69
2021/12/05 08:17:35;;;;;;;0.40;0.20;;;5.20;99.90;;;;;;4973449;28;20419;-70
2021/12/05 08:20:03;;;;;;;0.40;0.20;;;5.20;99.90;;;;;;4973424;28;20491;-69
2021/12/05 08:22:29;;;;;;;0.40;0.20;;;5.20;99.90;;;;;;4972928;28;20420;-70
2021/12/05 08:24:56;;;;;;;0.40;0.20;;;5.20;99.90;;;;;;4973164;28;20444;-70
2021/12/05 08:27:22;;;;;;;0.40;0.30;;;5.30;99.90;;;;;;4972546;28;20889;-70
2021/12/05 08:29:53;;;;;;;0.40;0.20;;;5.30;99.90;;;;;;4973331;28;20407;-71
2021/12/05 09:30:08;;;;;;;0.40;0.20;;;5.80;99.90;;;;;;4893762;29;20439;-71
2021/12/05 09:51:13;;;;;;;1.50;0.90;;;5.70;99.90;;;;;;4971973;28;20376;-71
2021/12/05 10:02:49;;;;;;;0.40;0.30;;;6.10;99.90;;;;;;4972028;28;20383;-71
2021/12/05 10:08:51;;;;;;;0.40;0.20;;;6.20;99.90;;;;;;4972161;28;20554;-71
2021/12/05 10:16:25;;;;;;;0.40;0.20;;;6.30;99.90;;;;;;4962537;28;20873;-71
2021/12/05 10:36:29;;;;;;;0.40;0.20;;;6.50;99.90;;;;;;4965740;28;20427;-71
2021/12/05 10:38:50;;;;;;;0.40;0.20;;;6.60;99.90;;;;;;4947207;29;20402;-71
2021/12/05 10:44:10;;;;;;;0.40;0.20;;;6.90;99.90;;;;;;4952090;29;20887;-71
2021/12/05 10:46:39;;;;;;;0.40;0.30;;;6.80;99.90;;;;;;4955645;29;20603;-71
2021/12/05 10:49:11;;;;;;;0.40;0.20;;;6.50;99.90;;;;;;4955479;29;20402;-70
2021/12/05 10:51:42;;;;;;;0.40;0.30;;;6.70;99.90;;;;;;4954693;29;20516;-71
2021/12/05 10:54:14;;;;;;;0.40;0.20;;;6.90;99.90;;;;;;4955916;29;20484;-70
2021/12/05 10:56:49;;;;;;;0.40;0.20;;;6.80;99.90;;;;;;4955314;29;20898;-71
2021/12/05 10:59:16;;;;;;;0.40;0.20;;;6.70;99.90;;;;;;4955880;29;20724;-70
2021/12/05 11:01:50;;;;;;;0.40;0.20;;;6.60;99.90;;;;;;4954645;29;20901;-70
2021/12/05 11:04:18;;;;;;;0.40;0.20;;;6.60;99.90;;;;;;4955934;29;20385;-70
2021/12/05 11:06:56;;;;;;;0.40;0.20;;;6.50;99.90;;;;;;4954694;29;20928;-70
2021/12/05 11:09:31;;;;;;;0.40;0.20;;;6.60;99.90;;;;;;4955637;29;20402;-70
2021/12/05 11:12:00;;;;;;;0.40;0.20;;;6.40;99.90;;;;;;4954575;29;20533;-70
2021/12/05 11:14:36;;;;;;;0.40;0.20;;;6.30;99.90;;;;;;4955517;29;20819;-70
2021/12/05 11:17:14;;;;;;;0.40;0.20;;;6.20;99.90;;;;;;4955022;29;21005;-71
2021/12/05 11:19:41;;;;;;;0.40;0.20;;;6.30;99.90;;;;;;4954893;29;20735;-73
2021/12/05 11:22:17;;;;;;;0.40;0.20;;;6.40;99.90;;;;;;4955158;29;20394;-70
2021/12/05 11:25:11;;;;;;;0.40;0.20;;;6.50;99.90;;;;;;4954738;29;20746;-71
2021/12/05 11:27:40;;;;;;;0.40;0.20;;;6.60;99.90;;;;;;4937899;29;20409;-70
2021/12/05 11:30:13;;;;;;;0.40;0.20;;;6.60;99.90;;;;;;4954570;29;20923;-70
2021/12/05 11:33:02;;;;;;;0.40;0.20;;;6.50;99.90;;;;;;4955364;29;20398;-70
2021/12/05 11:35:37;;;;;;;0.40;0.20;;;6.80;99.90;;;;;;4962507;28;20392;-70
2021/12/05 11:38:25;;;;;;;0.40;0.20;;;6.80;99.90;;;;;;4973756;28;20470;-71
2021/12/05 11:40:51;;;;;;;0.40;0.20;;;6.70;99.90;;;;;;4973675;28;20397;-71
2021/12/05 11:43:20;;;;;;;0.40;0.20;;;6.70;99.90;;;;;;4974111;28;20388;-70
2021/12/05 11:46:12;;;;;;;0.40;0.25;;;6.70;99.90;;;;;;4974034;28;20399;-71
2021/12/05 11:48:42;;;;;;;0.40;0.20;;;6.50;99.90;;;;;;4974045;28;20816;-70
2021/12/05 11:51:21;;;;;;;0.40;0.30;;;6.40;99.90;;;;;;4973519;28;20753;-70
2021/12/05 11:53:54;;;;;;;0.70;0.70;;;6.40;99.90;;;;;;4974061;28;20402;-70
2021/12/05 11:56:43;;;;;;;0.40;0.20;;;6.40;99.90;;;;;;4974128;28;20495;-71
2021/12/05 11:59:11;;;;;;;0.40;0.20;;;6.40;99.90;;;;;;4972274;28;20463;-71
2021/12/05 12:01:52;;;;;;;0.40;0.20;;;6.30;99.90;;;;;;4973853;28;20388;-71
2021/12/05 12:04:21;;;;;;;0.40;0.20;;;6.40;99.90;;;;;;4973391;28;20809;-70
2021/12/05 12:07:24;;;;;;;0.40;0.20;;;6.30;99.90;;;;;;4956470;28;20760;-69
2021/12/05 12:09:54;;;;;;;0.40;0.28;;;6.20;99.90;;;;;;4959528;28;20422;-70
2021/12/05 12:12:19;;;;;;;0.40;0.20;;;6.50;99.90;;;;;;4973066;28;20467;-69
2021/12/05 12:14:46;;;;;;;0.40;0.20;;;6.40;99.90;;;;;;4973453;28;20384;-69
2021/12/05 12:17:17;;;;;;;0.40;0.20;;;6.40;99.90;;;;;;4973022;28;20416;-69
2021/12/05 12:19:46;;;;;;;0.40;0.20;;;6.30;99.90;;;;;;4973728;28;20395;-69
2021/12/05 12:22:12;;;;;;;0.40;0.20;;;6.30;99.90;;;;;;4972845;28;20471;-70
2021/12/05 12:24:40;;;;;;;0.40;0.20;;;6.30;99.90;;;;;;4973308;28;20737;-68
2021/12/05 12:27:07;;;;;;;0.40;0.20;;;6.10;99.90;;;;;;4973440;28;20455;-71
2021/12/05 12:29:35;;;;;;;0.40;0.20;;;6.20;99.90;;;;;;4972535;28;20393;-70
2021/12/05 12:32:11;;;;;;;0.40;0.20;;;6.70;99.90;;;;;;4973317;28;20764;-70
2021/12/05 12:34:37;;;;;;;0.40;0.20;;;6.70;99.90;;;;;;4972764;28;20463;-70
2021/12/05 12:37:05;;;;;;;0.40;0.20;;;6.50;99.90;;;;;;4973181;28;20434;-70
2021/12/05 12:39:39;;;;;;;0.40;0.20;;;6.60;99.90;;;;;;4972579;28;20392;-70
2021/12/05 12:42:19;;;;;;;0.40;0.20;;;6.50;99.90;;;;;;4973372;28;20876;-70
2021/12/05 12:45:21;;;;;;;0.40;0.20;;;6.60;99.90;;;;;;4973002;28;20396;-70
2021/12/05 12:47:58;;;;;;;0.40;0.20;;;6.50;99.90;;;;;;4972946;28;20466;-70
2021/12/05 12:50:40;;;;;;;0.40;0.20;;;6.30;99.90;;;;;;4954679;28;20471;-70
2021/12/05 12:53:17;;;;;;;0.40;0.20;;;6.40;99.90;;;;;;4972926;28;20389;-69
2021/12/05 12:55:51;;;;;;;0.40;0.20;;;6.20;99.90;;;;;;4971341;28;20436;-69
2021/12/05 12:58:48;;;;;;;0.40;0.20;;;6.20;99.90;;;;;;4972986;28;20464;-69
2021/12/05 13:01:40;;;;;;;0.40;0.20;;;6.00;99.90;;;;;;4972776;28;20435;-70
2021/12/05 13:10:05;;;;;;;0.40;0.40;;;4.90;99.90;;;;;;4972140;28;20426;-71
2021/12/05 13:12:34;;;;;;;0.40;0.20;;;4.80;99.90;;;;;;4972758;28;20395;-71
2021/12/05 13:15:02;;;;;;;0.40;0.20;;;4.70;99.90;;;;;;4972850;28;20721;-69
2021/12/05 13:17:45;;;;;;;0.40;0.20;;;4.50;99.90;;;;;;4972333;28;20430;-69
2021/12/05 13:20:13;;;;;;;0.40;0.20;;;4.50;99.90;;;;;;4972433;28;20725;-69
2021/12/05 13:22:57;;;;;;;0.40;0.20;;;4.60;99.90;;;;;;4955224;28;20408;-70
2021/12/05 13:25:23;;;;;;;0.40;0.20;;;4.60;99.90;;;;;;4972453;28;20392;-69
2021/12/05 13:27:49;;;;;;;0.40;0.20;;;4.50;99.90;;;;;;4971529;28;20392;-71
2021/12/05 13:30:31;;;;;;;0.40;0.20;;;4.60;99.90;;;;;;4972679;28;20429;-70
2021/12/05 13:33:18;;;;;;;0.40;0.20;;;4.70;99.90;;;;;;4971661;28;20388;-70
2021/12/05 13:35:45;;;;;;;0.40;0.20;;;4.80;99.90;;;;;;4944957;29;20485;-70
2021/12/05 13:38:39;;;;;;;0.40;0.20;;;4.90;99.90;;;;;;4952444;29;20398;-71
2021/12/05 13:41:19;;;;;;;0.40;0.20;;;5.10;99.90;;;;;;4952458;28;20402;-70
2021/12/05 13:44:10;;;;;;;0.40;0.20;;;5.30;99.90;;;;;;4953013;29;20402;-70
2021/12/05 13:46:39;;;;;;;0.40;0.20;;;5.30;99.90;;;;;;4951081;29;20811;-70
2021/12/05 13:49:30;;;;;;;0.40;0.20;;;5.60;99.90;;;;;;4935028;29;20750;-70
2021/12/05 13:52:32;;;;;;;0.40;0.20;;;5.70;99.90;;;;;;4951913;29;20434;-70
2021/12/05 13:55:30;;;;;;;0.40;0.20;;;5.60;99.90;;;;;;4952158;29;20405;-71
2021/12/05 13:58:17;;;;;;;0.40;0.22;;;5.50;99.90;;;;;;4932129;29;20497;-70
2021/12/05 14:00:46;;;;;;;0.40;0.20;;;5.50;99.90;;;;;;4952859;29;20767;-70
2021/12/05 14:03:12;;;;;;;0.40;0.20;;;5.60;99.90;;;;;;4935091;29;20405;-70
2021/12/05 14:05:47;;;;;;;0.40;0.20;;;5.40;99.90;;;;;;4952562;29;20764;-70
2021/12/05 14:08:13;;;;;;;0.40;0.38;;;5.40;99.90;;;;;;4955087;28;20489;-70
2021/12/05 14:10:44;;;;;;;0.40;0.20;;;5.40;99.90;;;;;;4939134;29;20896;-70
2021/12/05 14:13:10;;;;;;;0.40;0.30;;;5.50;99.90;;;;;;4938621;29;20401;-71
2021/12/05 14:15:37;;;;;;;0.40;0.20;;;5.50;99.90;;;;;;4956238;29;20393;-70
2021/12/05 14:18:03;;;;;;;0.40;0.20;;;5.40;99.90;;;;;;4956456;29;20390;-70
2021/12/05 14:20:29;;;;;;;0.40;0.20;;;5.50;99.90;;;;;;4939140;29;20409;-70
2021/12/05 14:22:57;;;;;;;0.40;0.20;;;5.50;99.90;;;;;;4956128;29;20488;-70
2021/12/05 14:25:25;;;;;;;0.40;0.20;;;5.50;99.90;;;;;;4955613;29;20398;-70
2021/12/05 14:27:58;;;;;;;0.40;0.20;;;5.60;99.90;;;;;;4956056;29;20397;-70
2021/12/05 14:30:29;;;;;;;0.40;0.30;;;5.60;99.90;;;;;;4955373;29;20387;-70
2021/12/05 14:32:58;;;;;;;0.40;0.20;;;5.50;99.90;;;;;;4956329;29;20854;-70
2021/12/05 14:35:39;;;;;;;0.40;0.20;;;5.40;99.90;;;;;;4962428;28;20395;-71
2021/12/05 14:38:06;;;;;;;0.40;0.20;;;5.50;99.90;;;;;;4975323;28;20885;-71
2021/12/05 14:40:34;;;;;;;0.40;0.20;;;5.40;99.90;;;;;;4974632;28;20495;-71
2021/12/05 14:43:10;;;;;;;0.40;0.25;;;5.30;99.90;;;;;;4975286;28;20392;-71
2021/12/05 14:45:39;;;;;;;0.40;0.20;;;5.30;99.90;;;;;;4974922;28;20487;-71
2021/12/05 14:48:10;;;;;;;0.40;0.30;;;5.40;99.90;;;;;;4975223;28;20463;-71
2021/12/05 14:50:38;;;;;;;0.40;0.30;;;5.40;99.90;;;;;;4974011;28;20614;-71
2021/12/05 14:53:09;;;;;;;0.40;0.20;;;5.40;99.90;;;;;;4975066;28;20451;-71
2021/12/05 14:55:36;;;;;;;0.40;0.20;;;5.30;99.90;;;;;;4974400;28;20439;-71
2021/12/05 14:58:08;;;;;;;0.40;0.20;;;5.40;99.90;;;;;;4975075;28;20392;-72
2021/12/05 15:00:40;;;;;;;0.40;0.20;;;5.30;99.90;;;;;;4974342;28;20706;-72
2021/12/05 15:03:17;;;;;;;0.40;0.20;;;5.20;99.90;;;;;;4974878;28;20551;-70
2021/12/05 15:05:45;;;;;;;0.40;0.20;;;5.20;99.90;;;;;;4974317;28;20391;-72
2021/12/05 15:08:15;;;;;;;1.00;0.60;;;5.20;99.90;;;;;;4974588;28;20445;-72
2021/12/05 15:10:42;;;;;;;0.40;0.20;;;5.20;99.90;;;;;;4973867;28;20384;-72
2021/12/05 15:13:09;;;;;;;0.40;0.22;;;5.20;99.90;;;;;;4974783;28;20396;-72
2021/12/05 15:15:36;;;;;;;0.40;0.20;;;4.90;99.90;;;;;;4974093;28;20388;-72
2021/12/05 15:18:03;;;;;;;0.40;0.20;;;4.70;99.90;;;;;;4957433;28;20426;-71
2021/12/05 15:20:32;;;;;;;0.40;0.20;;;4.60;99.90;;;;;;4973387;28;20489;-73
2021/12/05 15:23:07;;;;;;;0.40;0.30;;;4.50;99.90;;;;;;4974589;28;20486;-72
2021/12/05 15:25:36;;;;;;;0.40;0.20;;;4.50;99.90;;;;;;4973926;28;20460;-71
2021/12/05 15:28:02;;;;;;;0.40;0.20;;;4.40;99.90;;;;;;4973994;28;20393;-71
2021/12/05 15:30:31;;;;;;;0.40;0.20;;;4.30;99.90;;;;;;4974241;28;20388;-71
2021/12/05 15:33:01;;;;;;;0.40;0.20;;;4.20;99.90;;;;;;4974554;28;20435;-71
2021/12/05 15:35:28;;;;;;;1.20;0.70;;;4.10;99.90;;;;;;4966823;28;20397;-71
2021/12/05 15:37:57;;;;;;;0.40;0.20;;;4.10;99.90;;;;;;4954521;29;20409;-71
2021/12/05 15:40:25;;;;;;;0.40;0.30;;;4.10;99.90;;;;;;4955097;29;20615;-71
2021/12/05 15:42:57;;;;;;;0.40;0.20;;;4.00;99.90;;;;;;4954605;29;20401;-72
2021/12/05 15:45:22;;;;;;;0.40;0.30;;;4.00;99.90;;;;;;4954926;29;20393;-72
2021/12/05 15:47:49;;;;;;;0.40;0.20;;;4.00;99.90;;;;;;4954425;29;20835;-71
2021/12/05 15:50:22;;;;;;;0.40;0.20;;;3.90;99.90;;;;;;4954525;29;20525;-70
2021/12/05 15:52:50;;;;;;;0.40;0.20;;;3.80;99.90;;;;;;4954291;29;20405;-70
2021/12/05 15:55:18;;;;;;;0.40;0.30;;;3.70;99.90;;;;;;4954818;29;20382;-71
2021/12/05 15:57:48;;;;;;;0.40;0.30;;;3.80;99.90;;;;;;4953995;29;20417;-71
2021/12/05 16:00:30;;;;;;;0.40;0.30;;;3.80;99.90;;;;;;4954736;29;20395;-71
2021/12/05 16:03:00;;;;;;;0.80;0.70;;;3.70;99.90;;;;;;4953935;29;20394;-71
2021/12/05 16:05:26;;;;;;;0.40;0.20;;;3.90;99.90;;;;;;4954568;29;20496;-71
2021/12/05 16:08:00;;;;;;;0.40;0.30;;;3.90;99.90;;;;;;4953995;29;20390;-71
2021/12/05 16:10:25;;;;;;;0.40;0.20;;;4.00;99.90;;;;;;4954528;29;20406;-71
2021/12/05 16:12:53;;;;;;;0.40;0.22;;;4.00;99.90;;;;;;4953892;29;20422;-71
2021/12/05 16:15:26;;;;;;;0.40;0.40;;;4.10;99.90;;;;;;4954372;29;20386;-71
2021/12/05 16:17:58;;;;;;;0.40;0.22;;;4.10;99.90;;;;;;4953871;29;20508;-71
2021/12/05 16:20:48;;;;;;;0.40;0.20;;;4.10;99.90;;;;;;4954392;29;20421;-71
2021/12/05 16:23:25;;;;;;;0.40;0.20;;;4.00;99.90;;;;;;4954534;29;20457;-71
2021/12/05 16:26:15;;;;;;;0.40;0.20;;;4.20;99.90;;;;;;4953706;29;20405;-71
2021/12/05 16:28:55;;;;;;;0.40;0.20;;;4.40;99.90;;;;;;4936911;29;20485;-71
2021/12/05 16:31:22;;;;;;;0.40;0.30;;;4.30;99.90;;;;;;4953280;28;20783;-71
2021/12/05 16:33:54;;;;;;;0.60;0.60;;;4.40;99.90;;;;;;4954074;29;20754;-71
2021/12/05 16:36:21;;;;;;;0.40;0.20;;;4.30;99.90;;;;;;4968467;28;20416;-71
2021/12/05 16:38:52;;;;;;;0.40;0.20;;;4.30;99.90;;;;;;4973267;28;20514;-71
2021/12/05 16:41:24;;;;;;;0.80;0.70;;;4.20;99.90;;;;;;4972260;28;20826;-71
2021/12/05 16:44:04;;;;;;;0.40;0.20;;;4.20;99.90;;;;;;4971191;28;20481;-72
2021/12/05 16:46:42;;;;;;;0.40;0.20;;;4.30;99.90;;;;;;4958410;28;20446;-71
2021/12/05 16:49:12;;;;;;;0.40;0.20;;;4.20;99.90;;;;;;4960115;28;20411;-71
2021/12/05 16:51:53;;;;;;;0.40;0.20;;;4.40;99.90;;;;;;5146574;27;20361;-71
2021/12/05 16:54:36;;;;;;;0.40;0.20;;;4.40;99.90;;;;;;5120974;27;20395;-71
2021/12/05 16:57:18;;;;;;;0.40;0.20;;;4.40;99.90;;;;;;5124194;27;20379;-72
2021/12/05 16:59:48;;;;;;;0.40;0.20;;;4.30;99.90;;;;;;5125506;27;20883;-71
2021/12/05 17:02:40;;;;;;;0.40;0.20;;;4.40;99.90;;;;;;5104756;27;20398;-71
2021/12/05 17:05:17;;;;;;;0.40;0.30;;;4.30;99.90;;;;;;5120850;27;20376;-71
2021/12/05 17:07:48;;;;;;;0.40;0.20;;;4.30;99.90;;;;;;5125056;27;20379;-71
2021/12/05 17:10:34;;;;;;;0.40;0.30;;;4.40;99.90;;;;;;5124643;27;20497;-71
2021/12/05 17:13:37;;;;;;;0.40;0.20;;;4.30;99.90;;;;;;5122273;27;20423;-72
2021/12/05 17:16:12;;;;;;;0.40;0.20;;;4.30;99.90;;;;;;5120832;27;20409;-71
2021/12/05 17:18:42;;;;;;;0.40;0.20;;;4.20;99.90;;;;;;5123062;27;20467;-72
2021/12/05 17:21:18;;;;;;;0.40;0.20;;;4.10;99.90;;;;;;5124248;27;20868;-72
2021/12/05 17:23:49;;;;;;;0.40;0.20;;;4.10;99.90;;;;;;5124989;27;21745;-71
2021/12/05 17:26:19;;;;;;;0.40;0.20;;;4.10;99.90;;;;;;5120206;27;20378;-72
2021/12/05 17:28:56;;;;;;;0.40;0.22;;;4.00;99.90;;;;;;5125866;27;20386;-71
2021/12/05 17:31:42;;;;;;;0.40;0.20;;;4.00;99.90;;;;;;5124675;27;20882;-71
2021/12/05 17:34:21;;;;;;;0.40;0.20;;;4.20;99.90;;;;;;5124359;27;20993;-72
2021/12/05 17:37:04;;;;;;;0.40;0.20;;;4.20;99.90;;;;;;5125087;27;20497;-72
2021/12/05 17:39:34;;;;;;;0.40;0.20;;;4.10;99.90;;;;;;5124498;27;20384;-72
2021/12/05 17:42:04;;;;;;;0.40;0.20;;;4.10;99.90;;;;;;5105974;27;20384;-72
2021/12/05 17:44:30;;;;;;;0.40;0.20;;;4.00;99.90;;;;;;5121325;27;20439;-72
2021/12/05 17:46:59;;;;;;;0.40;0.20;;;3.90;99.90;;;;;;5106160;27;20404;-72
2021/12/05 17:49:28;;;;;;;0.40;0.20;;;3.70;99.90;;;;;;5122845;27;21057;-71
2021/12/05 17:51:57;;;;;;;0.40;0.22;;;3.40;99.90;;;;;;5124314;27;20489;-71
2021/12/05 17:54:31;;;;;;;0.40;0.20;;;3.40;99.90;;;;;;5121938;27;20389;-72
2021/12/05 17:57:06;;;;;;;0.40;0.20;;;3.40;99.90;;;;;;5105300;27;20721;-71
2021/12/05 18:03:04;;;;;;;0.40;0.20;;;3.10;99.90;;;;;;5115305;27;20889;-70
2021/12/05 18:05:08;;;;;;;0.40;0.20;;;3.10;99.90;;;;;;5090136;27;21641;-71
2021/12/05 18:07:42;;;;;;;0.40;0.30;;;3.00;99.90;;;;;;5109262;27;20491;-71
2021/12/05 18:10:10;;;;;;;0.40;0.20;;;3.00;99.90;;;;;;5110201;27;20522;-71
2021/12/05 18:12:37;;;;;;;0.50;0.50;;;2.90;99.90;;;;;;5090842;27;20399;-73
2021/12/05 18:15:15;;;;;;;0.40;0.30;;;2.80;99.90;;;;;;5106048;27;20387;-72
2021/12/05 18:17:41;;;;;;;0.40;0.20;;;2.70;99.90;;;;;;5109740;27;20403;-72
2021/12/05 18:20:11;;;;;;;0.50;0.40;;;2.60;99.90;;;;;;5111623;27;20452;-71
2021/12/05 18:22:37;;;;;;;0.70;0.70;;;2.60;99.90;;;;;;5108383;27;20398;-73
2021/12/05 18:25:04;;;;;;;0.40;0.30;;;2.60;99.90;;;;;;5088395;27;20491;-72
2021/12/05 18:27:31;;;;;;;0.40;0.30;;;2.60;99.90;;;;;;5091194;27;20436;-71
2021/12/05 18:29:57;;;;;;;0.40;0.20;;;2.70;99.90;;;;;;5108445;27;20408;-72
2021/12/05 18:32:23;;;;;;;0.40;0.20;;;2.60;99.90;;;;;;5091323;27;20922;-72
2021/12/05 18:34:50;;;;;;;0.40;0.20;;;2.60;99.90;;;;;;5089223;27;20387;-71
2021/12/05 18:37:16;;;;;;;0.50;0.50;;;2.50;99.90;;;;;;5109700;27;20387;-72
2021/12/05 18:39:49;;;;;;;0.40;0.20;;;2.40;99.90;;;;;;5091341;27;20395;-72
2021/12/05 18:42:17;;;;;;;0.40;0.20;;;2.30;99.90;;;;;;5090918;27;20421;-71
2021/12/05 18:44:51;;;;;;;0.40;0.20;;;2.30;99.90;;;;;;5088049;27;20392;-71
2021/12/05 18:47:18;;;;;;;0.40;0.20;;;2.30;99.90;;;;;;5091225;27;20518;-72